New Champion — V7GG2 — position and weather

sailwx.info

Track history (hours):
 
Tides and Currents Weather Stations Pressure Air Temp Water Temp Dewpoint Dewpoint Depression Visibility Wind Speed Wind Dir Waves Ship Positions

New Champion

Last reported at 2017-Feb-24 03:29 UTC. Time now 2017-Feb-24 03:41 UTC.
Position N 52°25' E 004°47'.

Length 228 m; draft 11.4 m.

Type: Ship (hazmat cat A). MMSI: 537985031.

Date/timePositionNaut miles runAvg speedWind from/ knotsBaromVisibWave heightAir tempDewpointWater temp
2017-Feb-24 03:29N 52°25' E 004°47'0 0.0
2017-Feb-24 02:32N 52°25' E 004°47'0 0.0
2017-Feb-24 01:32N 52°25' E 004°47'0 0.0
2017-Feb-24 00:29N 52°25' E 004°47'0 0.0
2017-Feb-23 23:32N 52°25' E 004°47'0 0.0
2017-Feb-23 22:32N 52°25' E 004°47'0 0.0
2017-Feb-23 21:32N 52°25' E 004°47'0 0.0
2017-Feb-23 20:32N 52°25' E 004°47'0 0.0
2017-Feb-23 19:32N 52°25' E 004°47'0 0.0
2017-Feb-23 18:29N 52°25' E 004°47'0 0.0
2017-Feb-23 17:32N 52°25' E 004°47'0 0.0
2017-Feb-23 16:32N 52°25' E 004°47'0 0.0
2017-Feb-23 15:32N 52°25' E 004°47'0 0.0
2017-Feb-23 14:32N 52°25' E 004°47'0 0.0
2017-Feb-23 13:32N 52°25' E 004°47'0 0.0
2017-Feb-23 12:32N 52°25' E 004°47'0 0.0
2017-Feb-23 11:32N 52°25' E 004°47'0 0.0
2017-Feb-23 10:32N 52°25' E 004°47'0 0.0
2017-Feb-23 09:32N 52°25' E 004°47'0 0.0
2017-Feb-23 08:32N 52°25' E 004°47'0 0.0
2017-Feb-23 07:23N 52°25' E 004°47'0 0.0
2017-Feb-23 06:29N 52°25' E 004°47'0 0.0
2017-Feb-23 05:29N 52°25' E 004°47'0 0.0
2017-Feb-23 04:32N 52°25' E 004°47'0 0.0
2017-Feb-23 03:32N 52°25' E 004°47'0 0.0
2017-Feb-23 02:32N 52°25' E 004°47'0 0.0
2017-Feb-23 01:32N 52°25' E 004°47'0 0.0
2017-Feb-23 00:32N 52°25' E 004°47'0 0.0
2017-Feb-22 23:32N 52°25' E 004°47'0 0.0
2017-Feb-22 22:32N 52°25' E 004°47'0 0.0
2017-Feb-22 21:29N 52°25' E 004°47'0 0.0
2017-Feb-22 20:32N 52°25' E 004°47'0 0.0
2017-Feb-22 19:29N 52°25' E 004°47'0 0.0
2017-Feb-22 18:32N 52°25' E 004°47'0 0.0
2017-Feb-22 17:32N 52°25' E 004°47'0 0.0
2017-Feb-22 16:32N 52°25' E 004°47'0 0.0
2017-Feb-22 15:29N 52°25' E 004°47'0 0.0
2017-Feb-22 14:29N 52°25' E 004°47'0 0.0
2017-Feb-22 13:32N 52°25' E 004°47'0 0.0
2017-Feb-22 12:32N 52°25' E 004°47'0 0.0
2017-Feb-22 11:32N 52°25' E 004°47'0 0.0
2017-Feb-22 10:32N 52°25' E 004°47'0 0.0
2017-Feb-22 09:32N 52°25' E 004°47'0 0.0
2017-Feb-22 08:29N 52°25' E 004°47'0 0.0
2017-Feb-22 07:29N 52°25' E 004°47'0 0.0
2017-Feb-22 06:26N 52°25' E 004°47'0 0.0
2017-Feb-22 05:32N 52°25' E 004°47'0 0.0
2017-Feb-22 04:32N 52°25' E 004°47'0 0.0
2017-Feb-22 03:32N 52°25' E 004°47'0 0.0
2017-Feb-22 02:29N 52°25' E 004°47'0 0.0
2017-Feb-22 01:32N 52°25' E 004°47'0 0.0
2017-Feb-22 00:32N 52°25' E 004°47'0 0.0
2017-Feb-21 23:32N 52°25' E 004°47'0 0.0
2017-Feb-21 22:32N 52°25' E 004°47'2 2.1
2017-Feb-21 21:33N 52°26' E 004°44'5 5.3
2017-Feb-21 20:34N 52°28' E 004°36'2 2.5
2017-Feb-21 19:34N 52°28' E 004°32'3 2.8
2017-Feb-21 18:33N 52°29' E 004°28'4 4.1
2017-Feb-21 17:33N 52°28' E 004°21'1111.4
2017-Feb-21 16:33N 52°27' E 004°03'2 2.1
2017-Feb-21 15:32N 52°26' E 004°00'0 0.0
2017-Feb-21 14:32N 52°26' E 004°00'0 0.0
2017-Feb-21 13:26N 52°26' E 004°00'0 0.0
2017-Feb-21 12:26N 52°26' E 004°00'0 0.0
2017-Feb-21 11:32N 52°26' E 004°00'0 0.0
2017-Feb-21 10:32N 52°26' E 004°00'0 0.0
2017-Feb-21 09:29N 52°26' E 004°00'0 0.0
2017-Feb-21 08:32N 52°26' E 004°00'0 0.0
2017-Feb-21 07:32N 52°26' E 004°00'0 0.0
2017-Feb-21 06:32N 52°26' E 004°00'0 0.0
2017-Feb-21 05:32N 52°26' E 004°00'0 0.0
2017-Feb-21 04:29N 52°26' E 004°00'0 0.0
2017-Feb-21 03:32N 52°26' E 004°00'0 0.0
2017-Feb-21 02:32N 52°26' E 004°00'0 0.0
2017-Feb-21 01:32N 52°26' E 004°00'0 0.1
2017-Feb-21 00:32N 52°26' E 004°00'0 0.0
2017-Feb-20 23:32N 52°26' E 004°00'0 0.0
2017-Feb-20 22:32N 52°26' E 004°00'4 3.6
2017-Feb-20 21:33N 52°24' E 003°55'10 9.1
2017-Feb-20 20:28N 52°34' E 003°53'2411.9
2017-Feb-20 18:26N 52°39' E 003°14'1111.1
2017-Feb-20 17:24N 52°40' E 002°55'  
2017-Feb-18 12:17N 52°40' E 002°55'0 0.0
2017-Feb-18 11:29N 52°40' E 002°55'0 0.0
2017-Feb-16 23:32N 52°40' E 002°55'45 8.9
2017-Feb-16 18:29N 51°57' E 002°38'1212.8
2017-Feb-16 17:34N 51°45' E 002°37'1514.9
2017-Feb-16 16:33N 51°34' E 002°21'1414.5
2017-Feb-16 15:34N 51°22' E 002°08'1413.8
2017-Feb-16 14:34N 51°11' E 001°54'1515.0
2017-Feb-16 13:33N 51°01' E 001°36'1413.8
2017-Feb-16 12:32N 50°49' E 001°25'5112.6
2017-Feb-16 08:30N 50°23' E 000°16'1312.6
2017-Feb-16 07:30N 50°20' W 000°03'1212.1
2017-Feb-16 06:33N 50°17' W 000°20'1111.5
2017-Feb-16 05:33N 50°14' W 000°38'1111.1
2017-Feb-16 04:32N 50°11' W 000°55'1111.4
2017-Feb-16 03:33N 50°07' W 001°11'1512.5
2017-Feb-16 02:20N 50°03' W 001°34'1113.6
2017-Feb-16 01:34N 50°01' W 001°50'1614.9
2017-Feb-16 00:29N 49°56' W 002°14'1515.4
2017-Feb-15 23:32N 49°52' W 002°36'1515.1
2017-Feb-15 22:33N 49°48' W 002°58'1514.8
2017-Feb-15 21:34N 49°44' W 003°20'1714.7
2017-Feb-15 20:25N 49°40' W 003°45'1415.0
2017-Feb-15 19:29N 49°36' W 004°06'1814.7
2017-Feb-15 18:17N 49°30' W 004°31'1114.4
2017-Feb-15 17:30N 49°27' W 004°48'  
Track history (hours):
 
Tides and Currents Weather Stations Pressure Air Temp Water Temp Dewpoint Dewpoint Depression Visibility Wind Speed Wind Dir Waves Ship Positions

New Champion

Last reported at 2017-Feb-24 03:29 UTC. Time now 2017-Feb-24 03:41 UTC.
Position N 52°25' E 004°47'.

Length 228 m; draft 11.4 m.

Type: Ship (hazmat cat A). MMSI: 537985031.

Date/timePositionNaut miles runAvg speedWind from/ knotsBaromVisibWave heightAir tempDewpointWater temp
2017-Feb-24 03:29N 52°25' E 004°47'0 0.0
2017-Feb-24 02:32N 52°25' E 004°47'0 0.0
2017-Feb-24 01:32N 52°25' E 004°47'0 0.0
2017-Feb-24 00:29N 52°25' E 004°47'0 0.0
2017-Feb-23 23:32N 52°25' E 004°47'0 0.0
2017-Feb-23 22:32N 52°25' E 004°47'0 0.0
2017-Feb-23 21:32N 52°25' E 004°47'0 0.0
2017-Feb-23 20:32N 52°25' E 004°47'0 0.0
2017-Feb-23 19:32N 52°25' E 004°47'0 0.0
2017-Feb-23 18:29N 52°25' E 004°47'0 0.0
2017-Feb-23 17:32N 52°25' E 004°47'0 0.0
2017-Feb-23 16:32N 52°25' E 004°47'0 0.0
2017-Feb-23 15:32N 52°25' E 004°47'0 0.0
2017-Feb-23 14:32N 52°25' E 004°47'0 0.0
2017-Feb-23 13:32N 52°25' E 004°47'0 0.0
2017-Feb-23 12:32N 52°25' E 004°47'0 0.0
2017-Feb-23 11:32N 52°25' E 004°47'0 0.0
2017-Feb-23 10:32N 52°25' E 004°47'0 0.0
2017-Feb-23 09:32N 52°25' E 004°47'0 0.0
2017-Feb-23 08:32N 52°25' E 004°47'0 0.0
2017-Feb-23 07:23N 52°25' E 004°47'0 0.0
2017-Feb-23 06:29N 52°25' E 004°47'0 0.0
2017-Feb-23 05:29N 52°25' E 004°47'0 0.0
2017-Feb-23 04:32N 52°25' E 004°47'0 0.0
2017-Feb-23 03:32N 52°25' E 004°47'0 0.0
2017-Feb-23 02:32N 52°25' E 004°47'0 0.0
2017-Feb-23 01:32N 52°25' E 004°47'0 0.0
2017-Feb-23 00:32N 52°25' E 004°47'0 0.0
2017-Feb-22 23:32N 52°25' E 004°47'0 0.0
2017-Feb-22 22:32N 52°25' E 004°47'0 0.0
2017-Feb-22 21:29N 52°25' E 004°47'0 0.0
2017-Feb-22 20:32N 52°25' E 004°47'0 0.0
2017-Feb-22 19:29N 52°25' E 004°47'0 0.0
2017-Feb-22 18:32N 52°25' E 004°47'0 0.0
2017-Feb-22 17:32N 52°25' E 004°47'0 0.0
2017-Feb-22 16:32N 52°25' E 004°47'0 0.0
2017-Feb-22 15:29N 52°25' E 004°47'0 0.0
2017-Feb-22 14:29N 52°25' E 004°47'0 0.0
2017-Feb-22 13:32N 52°25' E 004°47'0 0.0
2017-Feb-22 12:32N 52°25' E 004°47'0 0.0
2017-Feb-22 11:32N 52°25' E 004°47'0 0.0
2017-Feb-22 10:32N 52°25' E 004°47'0 0.0
2017-Feb-22 09:32N 52°25' E 004°47'0 0.0
2017-Feb-22 08:29N 52°25' E 004°47'0 0.0
2017-Feb-22 07:29N 52°25' E 004°47'0 0.0
2017-Feb-22 06:26N 52°25' E 004°47'0 0.0
2017-Feb-22 05:32N 52°25' E 004°47'0 0.0
2017-Feb-22 04:32N 52°25' E 004°47'0 0.0
2017-Feb-22 03:32N 52°25' E 004°47'0 0.0
2017-Feb-22 02:29N 52°25' E 004°47'0 0.0
2017-Feb-22 01:32N 52°25' E 004°47'0 0.0
2017-Feb-22 00:32N 52°25' E 004°47'0 0.0
2017-Feb-21 23:32N 52°25' E 004°47'0 0.0
2017-Feb-21 22:32N 52°25' E 004°47'2 2.1
2017-Feb-21 21:33N 52°26' E 004°44'5 5.3
2017-Feb-21 20:34N 52°28' E 004°36'2 2.5
2017-Feb-21 19:34N 52°28' E 004°32'3 2.8
2017-Feb-21 18:33N 52°29' E 004°28'4 4.1
2017-Feb-21 17:33N 52°28' E 004°21'1111.4
2017-Feb-21 16:33N 52°27' E 004°03'2 2.1
2017-Feb-21 15:32N 52°26' E 004°00'0 0.0
2017-Feb-21 14:32N 52°26' E 004°00'0 0.0
2017-Feb-21 13:26N 52°26' E 004°00'0 0.0
2017-Feb-21 12:26N 52°26' E 004°00'0 0.0
2017-Feb-21 11:32N 52°26' E 004°00'0 0.0
2017-Feb-21 10:32N 52°26' E 004°00'0 0.0
2017-Feb-21 09:29N 52°26' E 004°00'0 0.0
2017-Feb-21 08:32N 52°26' E 004°00'0 0.0
2017-Feb-21 07:32N 52°26' E 004°00'0 0.0
2017-Feb-21 06:32N 52°26' E 004°00'0 0.0
2017-Feb-21 05:32N 52°26' E 004°00'0 0.0
2017-Feb-21 04:29N 52°26' E 004°00'0 0.0
2017-Feb-21 03:32N 52°26' E 004°00'0 0.0
2017-Feb-21 02:32N 52°26' E 004°00'0 0.0
2017-Feb-21 01:32N 52°26' E 004°00'0 0.1
2017-Feb-21 00:32N 52°26' E 004°00'0 0.0
2017-Feb-20 23:32N 52°26' E 004°00'0 0.0
2017-Feb-20 22:32N 52°26' E 004°00'4 3.6
2017-Feb-20 21:33N 52°24' E 003°55'10 9.1
2017-Feb-20 20:28N 52°34' E 003°53'2411.9
2017-Feb-20 18:26N 52°39' E 003°14'1111.1
2017-Feb-20 17:24N 52°40' E 002°55'  
2017-Feb-18 12:17N 52°40' E 002°55'0 0.0
2017-Feb-18 11:29N 52°40' E 002°55'0 0.0
2017-Feb-16 23:32N 52°40' E 002°55'45 8.9
2017-Feb-16 18:29N 51°57' E 002°38'1212.8
2017-Feb-16 17:34N 51°45' E 002°37'1514.9
2017-Feb-16 16:33N 51°34' E 002°21'1414.5
2017-Feb-16 15:34N 51°22' E 002°08'1413.8
2017-Feb-16 14:34N 51°11' E 001°54'1515.0
2017-Feb-16 13:33N 51°01' E 001°36'1413.8
2017-Feb-16 12:32N 50°49' E 001°25'5112.6
2017-Feb-16 08:30N 50°23' E 000°16'1312.6
2017-Feb-16 07:30N 50°20' W 000°03'1212.1
2017-Feb-16 06:33N 50°17' W 000°20'1111.5
2017-Feb-16 05:33N 50°14' W 000°38'1111.1
2017-Feb-16 04:32N 50°11' W 000°55'1111.4
2017-Feb-16 03:33N 50°07' W 001°11'1512.5
2017-Feb-16 02:20N 50°03' W 001°34'1113.6
2017-Feb-16 01:34N 50°01' W 001°50'1614.9
2017-Feb-16 00:29N 49°56' W 002°14'1515.4
2017-Feb-15 23:32N 49°52' W 002°36'1515.1
2017-Feb-15 22:33N 49°48' W 002°58'1514.8
2017-Feb-15 21:34N 49°44' W 003°20'1714.7
2017-Feb-15 20:25N 49°40' W 003°45'1415.0
2017-Feb-15 19:29N 49°36' W 004°06'1814.7
2017-Feb-15 18:17N 49°30' W 004°31'1114.4
2017-Feb-15 17:30N 49°27' W 004°48'  

Dump ship's entire track history